Airfield :
LOGIN :

Register | Disclaimer

   EN    FR    IT 

 










Legend :    VFR   Marginal VFR   IFR   Intensive IFR   Very Intensive IFR
Visi :
Ceiling :
>= 8 km
>= 3000ft
5 to 8 km
1000 to 3000 ft
1500m to 5 km
500 to 1000 ft
800 to 1500m
200 to 500 ft
< 800m
< 200 ft
Symbols :   Thunderstorms  Fog  Heavy snow  Heavy precipitations  Wind > 20 kt
SIGMETs :     Misc.  Thunderstorms  Icing  Turbulence  Mountain Waves  Volcanic Ashes






- Airport Elevation : 295 ft
- IATA code : ORN


DAOO - Es senia - Oran

CURRENT METAR :
  • 142200Z 24012KT 9999 -RA FEW020 BKN026 FEW030CB 12/10 Q1007

EXPIRED METARs :
  • 142130Z 24016KT 9999 -RA FEW020 BKN026 FEW030CB 12/10 Q1008
  • 142100Z 24014KT 9999 -RA FEW020 BKN026 FEW030CB 13/10 Q1007
  • 142030Z 24014KT 9999 -RA FEW020 FEW023TCU BKN026 13/11 Q1008
  • 142000Z 24018KT 9999 -RA FEW020 FEW023TCU BKN026 13/11 Q1007
  • 141930Z 24019KT 9999 FEW023 BKN026 13/11 Q1007

TAF TAF DAOO
Valid from the 14 at 18:00 until the 15 at 18:00 UTC


141700Z 1418/1518 22018KT 9999 SCT020 BKN026
PROB40
TEMPO 1418/1424 5000 TSRA SCT020 FEW023CB BKN026
PROB30
TEMPO 1506/1512 6000 -TSRA FEW026CB



MET'MAP, your aeronautical weather chart ! - Copyright ORBIFLY December 2007 - Disclaimer

ORBIFLY MET'MAP TEAM :

Programming & Development : Alexandra Zaïnal
Concept & Development : Baudouin d'Aumeries
Co-Development & Prog : Marc-Olivier Méhu
Technical & hardware support : Manuel Goepfert

Contact : metmap@orbifly.com




SOURCES & CREDITS :

   NOAA